Time;durP1;ratioP1;P1;durP2;ratioP2;P2;SDS_P1;SDS_P2;PMS_P1;PMS_P2;Temp;Humidity;BMP_temperature;BMP_pressure;BME280_temperature;BME280_humidity;BME280_pressure;Samples;Min_cycle;Max_cycle;Signal;HPM_P1;HPM_P2
2021/11/04 00:01:50;;;;;;;36.10;13.60;;;10.70;86.20;;;;;;5094125;28;20432;-54
2021/11/04 00:04:15;;;;;;;33.75;12.80;;;10.70;86.30;;;;;;5089138;28;20349;-51
2021/11/04 00:06:41;;;;;;;35.78;12.70;;;10.60;86.10;;;;;;5094415;28;20024;-53
2021/11/04 00:09:07;;;;;;;38.15;12.80;;;10.70;86.30;;;;;;5093818;28;20024;-52
2021/11/04 00:11:33;;;;;;;39.20;13.73;;;10.70;86.10;;;;;;5090576;28;20468;-54
2021/11/04 00:13:58;;;;;;;48.13;15.30;;;10.60;85.90;;;;;;5080691;28;20455;-53
2021/11/04 00:16:24;;;;;;;45.83;16.10;;;10.60;85.90;;;;;;5093439;28;20047;-53
2021/11/04 00:18:49;;;;;;;31.70;16.17;;;10.60;86.00;;;;;;5093411;28;20024;-51
2021/11/04 00:21:15;;;;;;;43.35;15.88;;;10.60;86.10;;;;;;5093400;28;20089;-51
2021/11/04 00:23:41;;;;;;;31.40;16.17;;;10.60;86.30;;;;;;5103520;28;20016;-52
2021/11/04 00:26:08;;;;;;;46.53;16.45;;;10.50;86.40;;;;;;5093462;28;20024;-51
2021/11/04 00:28:33;;;;;;;33.35;14.45;;;10.50;86.40;;;;;;5093501;28;20057;-51
2021/11/04 00:30:59;;;;;;;43.75;16.30;;;10.50;86.50;;;;;;5093688;28;20081;-50
2021/11/04 00:33:25;;;;;;;41.67;15.73;;;10.50;86.60;;;;;;5093419;28;20103;-54
2021/11/04 00:35:50;;;;;;;40.92;14.73;;;10.40;86.50;;;;;;5093531;28;20025;-52
2021/11/04 00:38:16;;;;;;;46.50;14.63;;;10.40;86.50;;;;;;5091900;28;20458;-51
2021/11/04 00:40:42;;;;;;;39.92;15.40;;;10.40;86.60;;;;;;5093399;28;20434;-51
2021/11/04 00:43:07;;;;;;;32.03;13.75;;;10.40;86.70;;;;;;5092138;28;20103;-51
2021/11/04 00:45:33;;;;;;;34.45;14.50;;;10.40;86.80;;;;;;5073099;28;20444;-50
2021/11/04 00:47:59;;;;;;;28.85;13.18;;;10.40;86.70;;;;;;5079542;28;20059;-52
2021/11/04 00:50:26;;;;;;;41.67;11.93;;;10.40;86.60;;;;;;5092818;28;20027;-52
2021/11/04 00:52:53;;;;;;;58.55;13.55;;;10.40;86.80;;;;;;5093100;28;20031;-51
2021/11/04 00:55:18;;;;;;;35.20;12.50;;;10.40;86.80;;;;;;5102142;28;20045;-51
2021/11/04 00:57:44;;;;;;;37.33;12.88;;;10.50;86.70;;;;;;5112315;28;20023;-53
2021/11/04 01:00:13;;;;;;;54.17;14.23;;;10.50;86.80;;;;;;5073015;28;20380;-54
2021/11/04 01:02:39;;;;;;;61.53;12.90;;;10.50;86.90;;;;;;5082906;28;20153;-50
2021/11/04 01:05:06;;;;;;;62.92;12.05;;;10.50;87.10;;;;;;5092791;28;20039;-50
2021/11/04 01:07:32;;;;;;;67.05;13.38;;;10.50;87.00;;;;;;5093017;28;20024;-52
2021/11/04 01:09:57;;;;;;;38.22;13.00;;;10.50;87.10;;;;;;5091976;28;20024;-52
2021/11/04 01:12:23;;;;;;;46.38;12.40;;;10.50;87.30;;;;;;5080581;28;20062;-51
2021/11/04 01:14:49;;;;;;;40.65;12.93;;;10.50;87.50;;;;;;5087117;28;20055;-53
2021/11/04 01:17:15;;;;;;;32.42;12.48;;;10.60;87.80;;;;;;5092280;28;20122;-51
2021/11/04 01:19:41;;;;;;;51.00;13.35;;;10.60;87.90;;;;;;5074686;28;20574;-51
2021/11/04 01:22:07;;;;;;;93.50;25.60;;;10.60;88.00;;;;;;5092678;28;20034;-53
2021/11/04 01:24:32;;;;;;;126.65;27.85;;;10.60;87.50;;;;;;5092649;28;20040;-51
2021/11/04 01:26:58;;;;;;;91.72;30.88;;;10.50;87.20;;;;;;5092627;28;20016;-52
2021/11/04 01:29:24;;;;;;;89.80;27.88;;;10.50;87.20;;;;;;5102672;28;20020;-54
2021/11/04 01:31:49;;;;;;;86.70;21.70;;;10.40;87.20;;;;;;5111462;28;20103;-51
2021/11/04 01:34:15;;;;;;;91.63;20.27;;;10.30;87.50;;;;;;5092722;28;20041;-53
2021/11/04 01:36:41;;;;;;;111.82;21.70;;;10.30;87.40;;;;;;5092635;28;20418;-50
2021/11/04 01:39:07;;;;;;;95.20;18.92;;;10.20;87.00;;;;;;5092640;28;20056;-51
2021/11/04 01:41:32;;;;;;;111.18;20.70;;;10.10;87.20;;;;;;5092652;28;20036;-50
2021/11/04 01:43:58;;;;;;;110.10;20.58;;;10.00;87.10;;;;;;5085573;28;20090;-52
2021/11/04 01:46:24;;;;;;;96.00;21.65;;;9.80;87.20;;;;;;5072741;28;20120;-51
2021/11/04 01:48:51;;;;;;;90.20;19.40;;;9.70;87.60;;;;;;5085276;28;20016;-52
2021/11/04 01:51:18;;;;;;;100.05;20.95;;;9.70;88.20;;;;;;5092137;28;20024;-53
2021/11/04 01:53:45;;;;;;;166.85;24.50;;;9.60;88.50;;;;;;5092464;28;20060;-52
2021/11/04 01:56:10;;;;;;;127.18;23.05;;;9.50;88.60;;;;;;5092380;28;20032;-51
2021/11/04 01:58:36;;;;;;;108.72;24.08;;;9.50;88.80;;;;;;5093379;28;20020;-51
2021/11/04 02:01:02;;;;;;;169.13;25.67;;;9.40;89.20;;;;;;5096312;28;20495;-52
2021/11/04 02:03:43;;;;;;;80.85;28.80;;;9.40;89.90;;;;;;5095671;28;20029;-52
2021/11/04 02:06:20;;;;;;;161.60;27.27;;;9.40;90.20;;;;;;5095987;28;20016;-53
2021/11/04 02:09:06;;;;;;;149.50;24.38;;;9.50;90.30;;;;;;5096234;28;20103;-50
2021/11/04 02:11:41;;;;;;;104.03;25.05;;;9.50;90.10;;;;;;5095205;28;20069;-52
2021/11/04 02:14:11;;;;;;;80.18;26.52;;;9.50;90.40;;;;;;5093164;28;20035;-51
2021/11/04 02:16:40;;;;;;;78.57;24.92;;;9.60;90.70;;;;;;5095845;28;20056;-53
2021/11/04 02:19:31;;;;;;;93.75;25.20;;;9.60;90.70;;;;;;5094246;28;20485;-51
2021/11/04 02:22:00;;;;;;;81.22;24.60;;;9.70;90.60;;;;;;5095646;28;20028;-51
2021/11/04 02:24:38;;;;;;;71.78;24.38;;;9.80;90.80;;;;;;5095705;28;20028;-52
2021/11/04 02:27:07;;;;;;;124.25;23.02;;;9.80;90.70;;;;;;5095851;28;20047;-50
2021/11/04 02:29:35;;;;;;;58.75;26.98;;;9.90;90.70;;;;;;5095717;28;20032;-51
2021/11/04 02:32:02;;;;;;;79.93;25.30;;;9.90;90.50;;;;;;5095596;28;20028;-51
2021/11/04 02:34:29;;;;;;;85.03;27.88;;;10.00;90.40;;;;;;5095162;28;20106;-51
2021/11/04 02:36:56;;;;;;;77.70;27.85;;;10.00;90.30;;;;;;5101632;28;20475;-51
2021/11/04 02:39:24;;;;;;;67.20;27.60;;;10.00;90.20;;;;;;5116100;28;20027;-54
2021/11/04 02:41:50;;;;;;;104.32;28.15;;;10.10;90.20;;;;;;5096841;28;20020;-51
2021/11/04 02:44:16;;;;;;;83.05;29.10;;;10.10;90.10;;;;;;5091785;28;20020;-53
2021/11/04 02:46:41;;;;;;;78.30;27.17;;;10.10;90.00;;;;;;5094527;28;20024;-51
2021/11/04 02:49:08;;;;;;;72.32;28.15;;;10.10;90.00;;;;;;5077012;28;20044;-51
2021/11/04 02:51:37;;;;;;;74.53;26.45;;;10.20;90.00;;;;;;5094830;28;20078;-52
2021/11/04 02:54:06;;;;;;;75.80;26.83;;;10.20;90.00;;;;;;5075136;28;20037;-51
2021/11/04 02:57:02;;;;;;;71.32;27.25;;;10.20;90.00;;;;;;5089823;28;20039;-53
2021/11/04 02:59:27;;;;;;;58.30;24.58;;;10.30;89.60;;;;;;5086252;28;20456;-52
2021/11/04 03:01:57;;;;;;;111.85;21.80;;;10.20;89.80;;;;;;5115053;28;20023;-52
2021/11/04 03:04:22;;;;;;;145.68;21.40;;;10.30;89.50;;;;;;5103962;28;20024;-50
2021/11/04 03:06:49;;;;;;;137.43;20.52;;;10.30;88.90;;;;;;5094652;28;20012;-52
2021/11/04 03:09:17;;;;;;;116.00;17.70;;;10.20;88.50;;;;;;5078050;28;20032;-50
2021/11/04 03:11:42;;;;;;;74.85;17.33;;;10.20;88.90;;;;;;5080826;28;20024;-51
2021/11/04 03:14:08;;;;;;;87.85;13.88;;;10.10;89.20;;;;;;5093565;28;20113;-51
2021/11/04 03:16:43;;;;;;;64.55;13.20;;;10.10;89.00;;;;;;5111746;28;20100;-51
2021/11/04 03:19:12;;;;;;;111.35;13.13;;;10.10;89.00;;;;;;5112392;28;20411;-52
2021/11/04 03:21:45;;;;;;;44.15;10.90;;;10.00;89.00;;;;;;5094214;28;20501;-50
2021/11/04 03:24:12;;;;;;;51.38;9.93;;;9.90;89.30;;;;;;5094720;28;20850;-54
2021/11/04 03:26:42;;;;;;;57.17;10.52;;;9.90;89.60;;;;;;5075106;28;20032;-54
2021/11/04 03:29:08;;;;;;;50.92;8.70;;;9.90;89.80;;;;;;5073916;28;20040;-53
2021/11/04 03:31:38;;;;;;;49.30;8.77;;;9.90;89.80;;;;;;5081195;28;20026;-51
2021/11/04 03:34:08;;;;;;;49.40;8.75;;;9.90;90.00;;;;;;5093956;28;20119;-52
2021/11/04 03:36:35;;;;;;;55.80;8.48;;;9.90;90.00;;;;;;5094048;28;20534;-50
2021/11/04 03:39:02;;;;;;;67.18;8.25;;;9.90;90.00;;;;;;5093869;28;20032;-53
2021/11/04 03:41:29;;;;;;;67.85;7.93;;;9.90;90.20;;;;;;5092628;28;20073;-51
2021/11/04 03:43:54;;;;;;;44.47;8.35;;;9.90;90.10;;;;;;5079254;28;20498;-51
2021/11/04 03:46:20;;;;;;;41.72;8.90;;;9.80;90.20;;;;;;5073667;28;20042;-50
2021/11/04 03:48:47;;;;;;;26.00;8.07;;;9.90;90.40;;;;;;5099018;28;20020;-52
2021/11/04 03:51:13;;;;;;;27.75;8.43;;;9.90;90.60;;;;;;5093525;28;20039;-51
2021/11/04 03:53:41;;;;;;;29.98;8.73;;;9.90;90.70;;;;;;5093657;28;20031;-51
2021/11/04 03:56:07;;;;;;;23.20;8.02;;;10.00;90.90;;;;;;5093386;28;20035;-52
2021/11/04 03:58:39;;;;;;;11.63;7.43;;;10.00;90.80;;;;;;5093708;28;20028;-50
2021/11/04 04:01:06;;;;;;;23.05;7.88;;;10.10;90.80;;;;;;5092223;28;20030;-52
2021/11/04 04:03:31;;;;;;;12.13;7.53;;;10.20;90.80;;;;;;5093589;28;20024;-52
2021/11/04 04:06:06;;;;;;;18.10;8.02;;;10.20;90.80;;;;;;5100033;28;20032;-52
2021/11/04 04:08:39;;;;;;;13.38;9.10;;;10.30;90.60;;;;;;5093561;28;20017;-53
2021/11/04 04:11:05;;;;;;;16.20;9.05;;;10.30;90.60;;;;;;5093373;28;20153;-53
2021/11/04 04:13:32;;;;;;;13.57;8.32;;;10.40;90.60;;;;;;5092770;28;20069;-54
2021/11/04 04:15:58;;;;;;;14.93;9.85;;;10.40;90.50;;;;;;5079767;28;20076;-52
2021/11/04 04:18:23;;;;;;;16.33;10.10;;;10.40;90.40;;;;;;5073051;28;20044;-51
2021/11/04 04:20:50;;;;;;;16.20;9.02;;;10.50;90.10;;;;;;5088516;28;20024;-51
2021/11/04 04:23:16;;;;;;;15.20;9.25;;;10.50;89.90;;;;;;5093224;28;20112;-53
2021/11/04 04:25:42;;;;;;;15.40;10.93;;;10.50;89.70;;;;;;5093094;28;20038;-53
2021/11/04 04:28:08;;;;;;;19.67;9.80;;;10.40;89.80;;;;;;5092766;28;20024;-51
2021/11/04 04:30:33;;;;;;;16.35;9.95;;;10.40;89.80;;;;;;5092169;28;20024;-51
2021/11/04 04:32:59;;;;;;;16.95;9.68;;;10.40;89.60;;;;;;5093220;28;20375;-50
2021/11/04 04:35:25;;;;;;;13.20;9.13;;;10.40;89.60;;;;;;5099166;28;20115;-51
2021/11/04 04:37:51;;;;;;;13.40;8.77;;;10.40;89.80;;;;;;5113581;28;20022;-51
2021/11/04 04:40:17;;;;;;;15.48;10.63;;;10.50;90.00;;;;;;5099203;28;20024;-51
2021/11/04 04:42:42;;;;;;;13.90;9.25;;;10.50;89.90;;;;;;5092439;28;20506;-51
2021/11/04 04:45:08;;;;;;;29.73;17.40;;;10.50;89.60;;;;;;5092699;28;20031;-53
2021/11/04 04:47:35;;;;;;;22.65;16.17;;;10.50;89.00;;;;;;5092362;28;20024;-51
2021/11/04 04:50:00;;;;;;;39.38;16.90;;;10.40;88.60;;;;;;5092669;28;20413;-51
2021/11/04 04:52:27;;;;;;;33.08;14.57;;;10.40;88.70;;;;;;5092579;28;20079;-51
2021/11/04 04:54:54;;;;;;;34.50;13.13;;;10.20;88.30;;;;;;5092799;28;20124;-51
2021/11/04 04:57:23;;;;;;;23.55;10.27;;;10.10;88.70;;;;;;5092821;28;20031;-54
2021/11/04 04:59:57;;;;;;;25.92;9.20;;;10.00;89.20;;;;;;5092735;28;20051;-51
2021/11/04 05:02:24;;;;;;;27.92;7.47;;;10.00;89.80;;;;;;5092082;28;20078;-51
2021/11/04 05:04:50;;;;;;;25.40;6.85;;;10.00;90.20;;;;;;5092930;28;20032;-51
2021/11/04 05:07:17;;;;;;;22.63;6.25;;;9.90;90.30;;;;;;5093510;28;20019;-54
2021/11/04 05:09:42;;;;;;;28.08;6.20;;;9.90;90.60;;;;;;5091393;28;20035;-51
2021/11/04 05:12:08;;;;;;;33.60;6.80;;;10.00;90.90;;;;;;5091670;28;20016;-50
2021/11/04 05:14:34;;;;;;;25.33;6.82;;;10.00;91.10;;;;;;5093077;28;20032;-51
2021/11/04 05:17:00;;;;;;;36.08;6.53;;;10.10;91.20;;;;;;5086641;28;20048;-50
2021/11/04 05:19:26;;;;;;;37.15;6.43;;;10.10;91.40;;;;;;5092007;28;20107;-53
2021/11/04 05:21:52;;;;;;;47.33;6.60;;;10.10;91.40;;;;;;5092853;28;20406;-53
2021/11/04 05:24:17;;;;;;;31.80;6.10;;;10.20;91.50;;;;;;5090738;28;20476;-53
2021/11/04 05:26:43;;;;;;;30.88;6.43;;;10.20;91.50;;;;;;5093221;28;20016;-51
2021/11/04 05:29:09;;;;;;;32.55;5.68;;;10.30;91.60;;;;;;5091969;28;20022;-54
2021/11/04 05:31:35;;;;;;;42.40;6.18;;;10.30;91.50;;;;;;5091677;28;20024;-54
2021/11/04 05:34:01;;;;;;;42.25;6.63;;;10.30;91.40;;;;;;5093783;28;20039;-52
2021/11/04 05:36:27;;;;;;;50.08;7.57;;;10.30;91.40;;;;;;5091703;28;20506;-51
2021/11/04 05:38:55;;;;;;;38.08;6.60;;;10.30;91.60;;;;;;5096158;28;20070;-50
2021/11/04 05:41:21;;;;;;;39.10;7.28;;;10.30;91.70;;;;;;5096102;28;20535;-51
2021/11/04 05:43:47;;;;;;;46.47;7.10;;;10.30;91.80;;;;;;5095217;28;20466;-51
2021/11/04 05:46:13;;;;;;;44.00;9.00;;;10.20;91.80;;;;;;5095227;28;20036;-52
2021/11/04 05:48:39;;;;;;;59.95;10.73;;;10.20;91.90;;;;;;5085431;28;20036;-54
2021/11/04 05:51:05;;;;;;;44.83;8.27;;;10.20;92.00;;;;;;5083325;28;20356;-51
2021/11/04 05:53:31;;;;;;;37.47;7.30;;;10.20;92.10;;;;;;5096527;28;20450;-54
2021/11/04 05:55:57;;;;;;;48.20;7.65;;;10.20;92.10;;;;;;5096528;28;20056;-54
2021/11/04 05:58:22;;;;;;;45.40;7.15;;;10.10;92.20;;;;;;5096826;28;20032;-53
2021/11/04 06:00:48;;;;;;;49.03;7.85;;;10.10;92.30;;;;;;5103584;28;20467;-51
2021/11/04 06:03:14;;;;;;;47.20;7.38;;;10.10;92.30;;;;;;5109936;28;20376;-51
2021/11/04 06:05:40;;;;;;;41.88;8.88;;;10.10;92.40;;;;;;5081251;28;20100;-50
2021/11/04 06:08:06;;;;;;;44.88;7.00;;;10.00;92.60;;;;;;5075958;28;20535;-54
2021/11/04 06:10:32;;;;;;;47.17;6.68;;;10.00;92.80;;;;;;5110956;28;20108;-54
2021/11/04 06:12:58;;;;;;;45.78;6.78;;;10.00;92.80;;;;;;5092331;28;20047;-52
2021/11/04 06:15:24;;;;;;;44.22;5.63;;;9.90;92.90;;;;;;5094518;28;20044;-50
2021/11/04 06:17:50;;;;;;;38.17;6.32;;;9.90;93.20;;;;;;5085209;28;20028;-51
2021/11/04 06:20:15;;;;;;;35.35;6.60;;;9.90;93.30;;;;;;5073371;28;20051;-50
2021/11/04 06:22:42;;;;;;;34.60;6.20;;;9.90;93.60;;;;;;5094551;28;20028;-50
2021/11/04 06:25:08;;;;;;;25.10;6.05;;;9.80;93.90;;;;;;5092405;28;20032;-52
2021/11/04 06:27:34;;;;;;;40.42;6.47;;;9.80;94.10;;;;;;5101766;28;20024;-50
2021/11/04 06:30:02;;;;;;;54.17;9.35;;;9.80;94.40;;;;;;5094072;28;20090;-51
2021/11/04 06:32:28;;;;;;;64.43;8.63;;;9.80;94.60;;;;;;5081441;28;20373;-50
2021/11/04 06:34:54;;;;;;;60.42;9.30;;;9.80;94.80;;;;;;5091065;28;20028;-50
2021/11/04 06:37:19;;;;;;;37.13;8.40;;;9.80;95.00;;;;;;5093646;28;20427;-52
2021/11/04 06:39:45;;;;;;;44.80;7.82;;;9.80;95.00;;;;;;5086521;28;20514;-50
2021/11/04 06:42:11;;;;;;;49.70;8.85;;;9.80;95.20;;;;;;5089227;28;20687;-50
2021/11/04 06:44:37;;;;;;;54.72;8.82;;;9.90;95.20;;;;;;5087925;28;20499;-50
2021/11/04 06:47:05;;;;;;;50.70;8.50;;;9.90;95.30;;;;;;5090828;28;20023;-53
2021/11/04 06:49:34;;;;;;;68.30;8.95;;;9.90;95.40;;;;;;5087845;28;20020;-50
2021/11/04 06:52:00;;;;;;;46.40;8.63;;;10.00;95.20;;;;;;5082251;28;20491;-52
2021/11/04 06:54:26;;;;;;;54.83;10.48;;;10.00;95.00;;;;;;5090701;28;20027;-54
2021/11/04 06:56:52;;;;;;;53.60;8.68;;;9.90;95.00;;;;;;5082263;28;20028;-52
2021/11/04 06:59:26;;;;;;;45.05;7.30;;;9.90;95.00;;;;;;5081207;28;20414;-52
2021/11/04 07:01:57;;;;;;;49.70;7.88;;;9.90;95.10;;;;;;5075483;28;20024;-54
2021/11/04 07:04:34;;;;;;;46.20;7.80;;;9.90;95.30;;;;;;5062126;28;20492;-54
2021/11/04 07:07:21;;;;;;;44.85;7.28;;;9.90;95.40;;;;;;5080771;28;20383;-51
2021/11/04 07:09:47;;;;;;;52.13;7.80;;;9.90;95.50;;;;;;5072180;28;20434;-54
2021/11/04 07:12:13;;;;;;;32.35;6.88;;;9.90;95.60;;;;;;5078468;28;20036;-53
2021/11/04 07:14:42;;;;;;;42.15;8.18;;;10.00;95.70;;;;;;5079343;28;20043;-54
2021/11/04 07:17:09;;;;;;;40.53;7.47;;;10.00;95.90;;;;;;5074562;28;20543;-51
2021/11/04 07:19:35;;;;;;;37.05;8.13;;;10.00;95.80;;;;;;5080626;28;20028;-54
2021/11/04 07:22:20;;;;;;;37.45;8.38;;;10.10;95.90;;;;;;5074068;28;20035;-51
2021/11/04 07:24:48;;;;;;;38.42;10.85;;;10.10;95.80;;;;;;5077037;28;20616;-53
2021/11/04 07:27:32;;;;;;;46.03;10.30;;;10.10;95.90;;;;;;5085292;28;20547;-54
2021/11/04 07:30:03;;;;;;;40.17;8.80;;;10.10;95.90;;;;;;5079617;28;20042;-52
2021/11/04 07:32:31;;;;;;;39.35;9.23;;;10.10;95.90;;;;;;5073599;28;20031;-54
2021/11/04 07:34:57;;;;;;;31.65;9.48;;;10.10;95.80;;;;;;5080398;28;20426;-51
2021/11/04 07:37:30;;;;;;;35.22;9.18;;;10.10;95.80;;;;;;5073931;28;20043;-51
2021/11/04 07:39:56;;;;;;;36.25;8.20;;;10.10;95.80;;;;;;5068311;28;20036;-54
2021/11/04 07:42:22;;;;;;;42.45;9.73;;;10.00;96.00;;;;;;5075012;28;20319;-53
2021/11/04 07:44:48;;;;;;;22.95;9.30;;;10.00;96.20;;;;;;5071369;28;20143;-51
2021/11/04 07:47:16;;;;;;;32.92;9.88;;;10.00;96.30;;;;;;5068485;28;20046;-54
2021/11/04 07:49:42;;;;;;;32.15;9.63;;;10.00;96.40;;;;;;5067887;28;20036;-52
2021/11/04 07:52:08;;;;;;;32.55;10.45;;;10.10;96.50;;;;;;5068310;28;20725;-52
2021/11/04 07:54:35;;;;;;;26.25;9.77;;;10.10;96.60;;;;;;5071266;28;20036;-53
2021/11/04 07:57:01;;;;;;;27.80;11.70;;;10.10;96.60;;;;;;5070283;28;20032;-54
2021/11/04 07:59:30;;;;;;;28.05;12.10;;;10.10;96.80;;;;;;5071248;28;20048;-54
2021/11/04 08:01:56;;;;;;;31.73;13.70;;;10.20;96.90;;;;;;5062728;28;20114;-52
2021/11/04 08:04:23;;;;;;;26.90;13.75;;;10.20;96.80;;;;;;5065927;28;20082;-51
2021/11/04 08:06:49;;;;;;;25.92;12.35;;;10.30;96.80;;;;;;5062915;28;20077;-54
2021/11/04 08:09:15;;;;;;;27.45;12.73;;;10.30;96.80;;;;;;5068843;28;20427;-51
2021/11/04 08:11:40;;;;;;;30.02;12.82;;;10.30;96.80;;;;;;5069804;28;20034;-54
2021/11/04 08:14:06;;;;;;;34.03;13.70;;;10.40;96.70;;;;;;5064856;28;20081;-52
2021/11/04 08:16:32;;;;;;;37.95;16.90;;;10.40;96.50;;;;;;5063128;28;20078;-54
2021/11/04 08:18:58;;;;;;;43.88;16.60;;;10.50;96.50;;;;;;5063528;28;20036;-52
2021/11/04 08:21:25;;;;;;;35.45;14.02;;;10.50;96.20;;;;;;5046331;28;20125;-52
2021/11/04 08:23:50;;;;;;;32.53;14.00;;;10.50;96.20;;;;;;5063537;28;20043;-51
2021/11/04 08:26:16;;;;;;;31.65;12.98;;;10.50;96.20;;;;;;5069628;28;20023;-52
2021/11/04 08:28:42;;;;;;;33.63;13.48;;;10.50;96.20;;;;;;5071231;28;20028;-52
2021/11/04 08:31:07;;;;;;;27.10;13.05;;;10.50;96.00;;;;;;5067516;28;20466;-53
2021/11/04 08:33:33;;;;;;;41.08;11.15;;;10.60;96.20;;;;;;5066115;28;20115;-52
2021/11/04 08:35:59;;;;;;;23.85;11.13;;;10.60;96.10;;;;;;5064391;28;20028;-54
2021/11/04 08:38:25;;;;;;;22.88;10.18;;;10.60;96.00;;;;;;5071369;28;20028;-53
2021/11/04 08:40:51;;;;;;;25.55;11.50;;;10.60;95.90;;;;;;5059075;28;20040;-52
2021/11/04 08:43:17;;;;;;;24.45;11.15;;;10.70;95.80;;;;;;5050215;28;20067;-54
2021/11/04 08:45:44;;;;;;;25.77;10.65;;;10.70;95.80;;;;;;5057353;28;20135;-51
2021/11/04 08:48:10;;;;;;;31.23;11.25;;;10.70;95.80;;;;;;5061760;28;20035;-51
2021/11/04 08:50:36;;;;;;;26.75;11.70;;;10.70;95.80;;;;;;5058060;28;20036;-53
2021/11/04 08:53:02;;;;;;;22.77;10.25;;;10.70;95.80;;;;;;5059976;28;20044;-54
2021/11/04 08:55:28;;;;;;;22.38;9.95;;;10.70;95.80;;;;;;5056839;28;20081;-51
2021/11/04 08:57:54;;;;;;;32.85;10.68;;;10.70;95.60;;;;;;5048810;28;20052;-52
2021/11/04 09:00:20;;;;;;;24.60;9.93;;;10.70;95.60;;;;;;5040359;28;20032;-54
2021/11/04 09:02:47;;;;;;;29.67;12.18;;;10.70;95.50;;;;;;5062248;28;20357;-54
2021/11/04 09:05:13;;;;;;;27.35;11.23;;;10.80;95.40;;;;;;5069023;28;20094;-52
2021/11/04 09:07:40;;;;;;;27.90;10.52;;;10.70;95.50;;;;;;5067459;28;20021;-55
2021/11/04 09:10:07;;;;;;;22.50;9.90;;;10.70;95.60;;;;;;5069372;28;20024;-52
2021/11/04 09:12:35;;;;;;;17.33;9.93;;;10.80;95.60;;;;;;5065278;28;20521;-53
2021/11/04 09:15:03;;;;;;;17.85;9.80;;;10.80;95.70;;;;;;5066066;28;20067;-55
2021/11/04 09:17:29;;;;;;;22.10;10.32;;;10.80;95.90;;;;;;5049430;28;20415;-54
2021/11/04 09:19:54;;;;;;;20.63;10.55;;;10.90;95.90;;;;;;5058495;28;20112;-54
2021/11/04 09:22:20;;;;;;;18.50;10.40;;;10.90;95.60;;;;;;5059971;28;20036;-51
2021/11/04 09:24:47;;;;;;;16.90;10.25;;;10.90;95.40;;;;;;5061840;28;20032;-51
2021/11/04 09:27:13;;;;;;;15.95;11.00;;;11.00;95.50;;;;;;5057184;28;20024;-51
2021/11/04 09:29:39;;;;;;;19.77;8.82;;;11.10;95.80;;;;;;5054121;28;20070;-52
2021/11/04 09:32:06;;;;;;;17.75;10.50;;;11.20;95.50;;;;;;5061472;28;20051;-53
2021/11/04 09:34:33;;;;;;;22.88;10.20;;;11.10;95.10;;;;;;5060517;28;20039;-51
2021/11/04 09:37:05;;;;;;;19.98;9.88;;;11.20;94.70;;;;;;5057094;28;20032;-55
2021/11/04 09:39:32;;;;;;;20.00;10.07;;;11.20;94.70;;;;;;5058866;28;20411;-54
2021/11/04 09:41:58;;;;;;;25.90;11.52;;;11.20;94.90;;;;;;5059116;28;20028;-53
2021/11/04 09:44:23;;;;;;;23.45;10.85;;;11.20;95.00;;;;;;5060071;28;20071;-54
2021/11/04 09:46:49;;;;;;;19.00;10.07;;;11.20;95.00;;;;;;5056675;28;20028;-54
2021/11/04 09:49:15;;;;;;;23.33;10.68;;;11.30;94.90;;;;;;5062191;28;20043;-54
2021/11/04 09:51:41;;;;;;;23.67;10.88;;;11.30;94.70;;;;;;5058887;28;20037;-53
2021/11/04 09:54:06;;;;;;;19.98;11.35;;;11.30;94.60;;;;;;5057542;28;20499;-54
2021/11/04 09:56:34;;;;;;;19.85;10.98;;;11.30;94.70;;;;;;5049765;28;20081;-52
2021/11/04 09:59:00;;;;;;;18.13;10.48;;;11.30;94.70;;;;;;5043379;28;20142;-54
2021/11/04 10:01:28;;;;;;;18.60;10.73;;;11.40;94.70;;;;;;5051054;28;20276;-53
2021/11/04 10:03:55;;;;;;;18.05;10.65;;;11.40;94.70;;;;;;5055564;28;20050;-54
2021/11/04 10:06:27;;;;;;;16.90;10.57;;;11.40;94.70;;;;;;5072965;28;20020;-54
2021/11/04 10:08:54;;;;;;;;;;;11.40;94.70;;;;;;5074443;28;20020;-54
2021/11/04 10:11:31;;;;;;;18.52;10.70;;;11.40;94.70;;;;;;5076642;28;19918;-55
2021/11/04 10:14:05;;;;;;;25.25;12.07;;;11.40;94.60;;;;;;5076749;28;20024;-54
2021/11/04 10:16:32;;;;;;;27.25;15.13;;;11.40;94.30;;;;;;5069651;28;20573;-54
2021/11/04 10:19:03;;;;;;;35.85;13.90;;;11.40;94.30;;;;;;5065128;28;20407;-53
2021/11/04 10:21:30;;;;;;;28.83;13.68;;;11.40;94.30;;;;;;5070072;28;20051;-54
2021/11/04 10:23:57;;;;;;;30.75;12.48;;;11.40;94.30;;;;;;5077512;28;20036;-54
2021/11/04 10:26:25;;;;;;;31.75;13.05;;;11.40;94.40;;;;;;5080981;28;20056;-54
2021/11/04 10:29:00;;;;;;;36.50;13.02;;;11.40;94.40;;;;;;5083559;28;20476;-54
2021/11/04 10:31:34;;;;;;;33.45;13.75;;;11.40;94.40;;;;;;5075143;28;20031;-52
2021/11/04 10:33:59;;;;;;;44.50;13.40;;;11.40;94.40;;;;;;5066096;28;22415;-51
2021/11/04 10:36:26;;;;;;;56.88;13.85;;;11.40;94.70;;;;;;5071085;28;20123;-54
2021/11/04 10:39:00;;;;;;;67.25;13.95;;;11.40;94.60;;;;;;5069635;28;20036;-55
2021/11/04 10:41:39;;;;;;;55.40;13.40;;;11.40;94.30;;;;;;5071864;28;20150;-54
2021/11/04 10:44:09;;;;;;;52.20;12.93;;;11.40;94.10;;;;;;5074404;28;20028;-54
2021/11/04 10:46:44;;;;;;;61.93;13.97;;;11.30;94.30;;;;;;5070300;28;20108;-54
2021/11/04 10:49:10;;;;;;;89.57;17.20;;;11.30;94.30;;;;;;5073416;28;20102;-54
2021/11/04 10:51:36;;;;;;;55.63;13.90;;;11.30;94.40;;;;;;5072430;28;20028;-52
2021/11/04 10:54:08;;;;;;;51.38;12.73;;;11.30;94.50;;;;;;5072627;28;20086;-54
2021/11/04 10:56:36;;;;;;;60.40;13.35;;;11.30;94.60;;;;;;5066839;28;20043;-53
2021/11/04 10:59:13;;;;;;;44.70;12.25;;;11.20;94.60;;;;;;5070170;28;20036;-53
2021/11/04 11:01:40;;;;;;;54.85;13.30;;;11.20;94.70;;;;;;5068465;28;20107;-51
2021/11/04 11:04:12;;;;;;;49.78;14.45;;;11.20;94.70;;;;;;5073189;28;20124;-54
2021/11/04 11:06:47;;;;;;;54.33;16.00;;;11.30;94.70;;;;;;5072701;28;20086;-54
2021/11/04 11:09:17;;;;;;;48.75;13.43;;;11.20;94.70;;;;;;5076103;28;20064;-54
2021/11/04 11:11:55;;;;;;;49.77;12.73;;;11.20;94.60;;;;;;5079520;28;20031;-54
2021/11/04 11:14:26;;;;;;;52.50;12.55;;;11.20;94.70;;;;;;5073856;28;20083;-54
2021/11/04 11:16:54;;;;;;;78.73;13.20;;;11.20;94.90;;;;;;5075075;28;20051;-53
2021/11/04 11:19:21;;;;;;;40.47;11.30;;;11.20;95.10;;;;;;5072268;28;20349;-54
2021/11/04 11:21:51;;;;;;;40.22;12.48;;;11.20;95.00;;;;;;5072122;28;20036;-54
2021/11/04 11:24:26;;;;;;;29.70;11.23;;;11.20;94.90;;;;;;5071473;28;20032;-54
2021/11/04 11:26:53;;;;;;;40.88;11.60;;;11.20;94.80;;;;;;5068974;28;20082;-54
2021/11/04 11:29:19;;;;;;;28.58;11.30;;;11.20;95.00;;;;;;5075450;28;20448;-54
2021/11/04 11:31:49;;;;;;;35.85;12.23;;;11.20;95.20;;;;;;5072294;28;20031;-55
2021/11/04 11:34:16;;;;;;;25.95;10.73;;;11.20;95.10;;;;;;5075490;28;20133;-54
2021/11/04 11:37:13;;;;;;;23.40;11.38;;;11.20;95.10;;;;;;5074948;28;20052;-54
2021/11/04 11:39:42;;;;;;;43.88;11.30;;;11.30;94.80;;;;;;5073356;28;20035;-54
2021/11/04 11:42:10;;;;;;;26.73;10.93;;;11.30;94.80;;;;;;5075943;28;20790;-54
2021/11/04 11:44:42;;;;;;;36.50;12.90;;;11.20;94.80;;;;;;5060145;28;20028;-54
2021/11/04 11:47:10;;;;;;;28.40;12.07;;;11.20;94.60;;;;;;5069869;28;20051;-54
2021/11/04 11:49:40;;;;;;;34.70;12.05;;;11.20;94.90;;;;;;5073712;28;20042;-53
2021/11/04 11:52:08;;;;;;;28.38;12.25;;;11.20;94.90;;;;;;5074307;28;20032;-53
2021/11/04 11:54:52;;;;;;;38.30;11.75;;;11.20;95.00;;;;;;5072730;28;20532;-54
2021/11/04 11:57:18;;;;;;;24.30;10.93;;;11.20;94.90;;;;;;5066037;28;20035;-53
2021/11/04 11:59:57;;;;;;;24.73;12.55;;;11.20;95.10;;;;;;5067943;28;20035;-54
2021/11/04 12:02:54;;;;;;;20.08;12.40;;;11.20;94.90;;;;;;5064319;28;20052;-54
2021/11/04 12:05:20;;;;;;;26.52;12.40;;;11.30;94.80;;;;;;5056696;28;20869;-54
2021/11/04 12:07:47;;;;;;;20.05;11.82;;;11.30;95.00;;;;;;5066097;28;20032;-54
2021/11/04 12:10:31;;;;;;;25.02;12.73;;;11.30;95.00;;;;;;5065668;28;20034;-54
2021/11/04 12:12:58;;;;;;;20.88;13.18;;;11.30;94.90;;;;;;5063365;28;20039;-54
2021/11/04 12:15:25;;;;;;;21.73;13.23;;;11.30;94.90;;;;;;5064541;28;20475;-51
2021/11/04 12:18:10;;;;;;;20.67;13.13;;;11.30;94.90;;;;;;5064297;28;20036;-54
2021/11/04 12:20:37;;;;;;;44.80;26.83;;;11.40;95.10;;;;;;5062882;28;20097;-54
2021/11/04 12:23:03;;;;;;;39.00;25.45;;;11.40;95.30;;;;;;5058054;28;20120;-54
2021/11/04 12:25:29;;;;;;;37.28;24.73;;;11.40;95.30;;;;;;5059784;28;20044;-53
2021/11/04 12:27:58;;;;;;;24.55;17.10;;;11.50;95.20;;;;;;5067263;28;20495;-54
2021/11/04 12:30:27;;;;;;;20.35;14.70;;;11.50;95.10;;;;;;5062276;28;20093;-55
2021/11/04 12:32:58;;;;;;;19.23;14.23;;;11.50;95.10;;;;;;5060279;28;20036;-54
2021/11/04 12:35:25;;;;;;;16.50;12.40;;;11.60;95.10;;;;;;5069811;28;20028;-54